Time;durP1;ratioP1;P1;durP2;ratioP2;P2;SDS_P1;SDS_P2;PMS_P1;PMS_P2;Temp;Humidity;BMP_temperature;BMP_pressure;BME280_temperature;BME280_humidity;BME280_pressure;Samples;Min_cycle;Max_cycle;Signal;HPM_P1;HPM_P2
2021/08/01 00:00:41;;;;;;;;;;;;;;;22.73;28.80;97506.91;5101258;28;661;-78
2021/08/01 00:03:06;;;;;;;;;;;;;;;22.72;29.04;97504.53;5100988;28;984;-78
2021/08/01 00:05:32;;;;;;;;;;;;;;;22.72;28.98;97508.16;5100802;28;861;-78
2021/08/01 00:07:57;;;;;;;;;;;;;;;22.77;28.91;97510.41;5101019;28;930;-77
2021/08/01 00:10:23;;;;;;;;;;;;;;;22.77;28.75;97504.72;5101022;28;646;-78
2021/08/01 00:12:48;;;;;;;;;;;;;;;22.77;28.63;97507.56;5101053;28;610;-77
2021/08/01 00:15:13;;;;;;;;;;;;;;;22.63;28.72;97516.59;5100898;28;658;-78
2021/08/01 00:17:39;;;;;;;;;;;;;;;22.57;28.97;97512.81;5100367;28;1902;-77
2021/08/01 00:20:05;;;;;;;;;;;;;;;22.69;28.68;97517.63;5101018;28;883;-78
2021/08/01 00:22:31;;;;;;;;;;;;;;;22.80;28.84;97509.47;5100578;28;983;-77
2021/08/01 00:24:57;;;;;;;;;;;;;;;22.69;28.83;97514.78;5100735;28;642;-78
2021/08/01 00:27:22;;;;;;;;;;;;;;;22.68;29.06;97526.56;5100232;28;690;-77
2021/08/01 00:29:48;;;;;;;;;;;;;;;22.64;28.69;97523.88;5100656;28;679;-78
2021/08/01 00:32:13;;;;;;;;;;;;;;;22.76;28.46;97519.38;5100724;28;657;-77
2021/08/01 00:34:38;;;;;;;;;;;;;;;22.69;28.70;97526.13;5100657;28;851;-77
2021/08/01 00:37:04;;;;;;;;;;;;;;;22.73;28.66;97525.97;5100227;28;1963;-77
2021/08/01 00:39:29;;;;;;;;;;;;;;;22.69;28.78;97526.13;5100444;28;827;-78
2021/08/01 00:41:55;;;;;;;;;;;;;;;22.63;28.82;97523.06;5133982;27;1422;-77
2021/08/01 00:44:21;;;;;;;;;;;;;;;22.58;29.04;97525.72;5100538;28;670;-78
2021/08/01 00:46:46;;;;;;;;;;;;;;;22.70;28.55;97532.59;5100009;28;947;-77
2021/08/01 00:49:12;;;;;;;;;;;;;;;22.75;28.68;97529.94;5099601;28;1128;-77
2021/08/01 00:51:39;;;;;;;;;;;;;;;22.75;28.64;97529.94;5100433;28;873;-78
2021/08/01 00:54:06;;;;;;;;;;;;;;;22.72;28.73;97538.56;5116444;28;1348;-78
2021/08/01 00:56:34;;;;;;;;;;;;;;;22.65;28.99;97542.47;5099859;28;1318;-78
2021/08/01 00:59:00;;;;;;;;;;;;;;;22.74;28.44;97536.88;5100090;28;1964;-77
2021/08/01 01:01:38;;;;;;;;;;;;;;;22.67;28.42;97531.44;5099955;28;853;-78
2021/08/01 01:04:03;;;;;;;;;;;;;;;22.66;28.79;97527.03;5099684;28;1242;-77
2021/08/01 01:06:50;;;;;;;;;;;;;;;22.60;28.85;97524.00;5099792;28;1283;-77
2021/08/01 01:09:20;;;;;;;;;;;;;;;22.70;28.50;97522.03;5099598;28;1284;-77
2021/08/01 01:11:59;;;;;;;;;;;;;;;22.68;28.80;97518.06;5100161;28;641;-78
2021/08/01 01:14:25;;;;;;;;;;;;;;;22.62;28.61;97532.06;5133315;27;935;-77
2021/08/01 01:16:54;;;;;;;;;;;;;;;22.60;28.87;97537.41;5099572;28;1009;-77
2021/08/01 01:19:21;;;;;;;;;;;;;;;22.60;28.80;97528.91;5099956;28;1014;-77
2021/08/01 01:21:53;;;;;;;;;;;;;;;22.70;28.99;97522.03;5116085;28;1481;-78
2021/08/01 01:24:22;;;;;;;;;;;;;;;22.74;28.79;97528.34;5099603;28;1296;-77
2021/08/01 01:27:08;;;;;;;;;;;;;;;22.71;28.80;97532.13;5130518;28;625;-78
2021/08/01 01:29:53;;;;;;;;;;;;;;;22.65;28.69;97519.78;5132894;27;1121;-77
2021/08/01 01:32:20;;;;;;;;;;;;;;;22.56;28.88;97519.72;5099563;28;880;-77
2021/08/01 01:34:46;;;;;;;;;;;;;;;22.59;28.94;97510.31;5116297;28;1255;-77
2021/08/01 01:37:13;;;;;;;;;;;;;;;22.58;28.91;97508.69;5099270;28;2034;-78
2021/08/01 01:39:39;;;;;;;;;;;;;;;22.66;28.83;97510.03;5118150;28;1144;-77
2021/08/01 01:42:23;;;;;;;;;;;;;;;22.53;28.94;97506.47;5132498;27;645;-78
2021/08/01 01:44:58;;;;;;;;;;;;;;;22.64;28.69;97506.88;5103616;28;883;-78
2021/08/01 01:47:26;;;;;;;;;;;;;;;22.62;28.71;97509.38;5119346;28;1393;-77
2021/08/01 01:49:54;;;;;;;;;;;;;;;22.62;28.81;97503.69;5103878;28;622;-78
2021/08/01 01:52:21;;;;;;;;;;;;;;;22.61;28.88;97508.56;5104022;28;559;-78
2021/08/01 01:54:56;;;;;;;;;;;;;;;22.63;28.73;97506.06;5118512;28;1322;-78
2021/08/01 01:57:22;;;;;;;;;;;;;;;22.61;28.70;97510.63;5120390;28;1906;-77
2021/08/01 01:59:48;;;;;;;;;;;;;;;22.67;28.79;97511.59;5103557;28;689;-78
2021/08/01 02:02:15;;;;;;;;;;;;;;;22.67;28.63;97499.47;5103006;28;1143;-77
2021/08/01 02:04:42;;;;;;;;;;;;;;;22.71;28.90;97506.59;5102917;28;1392;-78
2021/08/01 02:07:43;;;;;;;;;;;;;;;22.61;28.66;97508.56;5082193;28;1125;-77
2021/08/01 02:10:35;;;;;;;;;;;;;;;22.54;28.67;97508.06;5101601;28;1070;-78
2021/08/01 02:13:02;;;;;;;;;;;;;;;22.55;28.96;97513.28;5119736;28;1140;-78
2021/08/01 02:15:39;;;;;;;;;;;;;;;22.60;28.56;97511.88;5118521;28;1222;-78
2021/08/01 02:18:08;;;;;;;;;;;;;;;22.64;28.80;97512.53;5135864;27;1964;-77
2021/08/01 02:20:39;;;;;;;;;;;;;;;22.56;28.98;97511.22;5136327;27;923;-78
2021/08/01 02:23:17;;;;;;;;;;;;;;;22.54;28.83;97513.75;5103176;28;633;-78
2021/08/01 02:25:43;;;;;;;;;;;;;;;22.54;28.82;97513.75;5136747;27;1152;-77
2021/08/01 02:28:09;;;;;;;;;;;;;;;22.58;28.83;97517.22;5136871;27;601;-77
2021/08/01 02:30:34;;;;;;;;;;;;;;;22.65;28.52;97519.78;5102671;28;973;-77
2021/08/01 02:33:00;;;;;;;;;;;;;;;22.51;28.72;97517.50;5135870;27;877;-78
2021/08/01 02:35:26;;;;;;;;;;;;;;;22.60;28.50;97520.41;5119388;28;1168;-78
2021/08/01 02:37:53;;;;;;;;;;;;;;;22.62;28.42;97526.38;5119379;28;1902;-77
2021/08/01 02:40:19;;;;;;;;;;;;;;;22.63;28.73;97525.13;5135820;27;907;-78
2021/08/01 02:42:47;;;;;;;;;;;;;;;22.62;28.36;97527.16;5118610;28;1305;-77
2021/08/01 02:45:14;;;;;;;;;;;;;;;22.56;28.61;97529.03;5118682;28;1254;-77
2021/08/01 02:47:39;;;;;;;;;;;;;;;22.60;28.48;97534.56;5135840;27;887;-77
2021/08/01 02:50:05;;;;;;;;;;;;;;;22.62;28.73;97538.50;5102097;28;838;-77
2021/08/01 02:52:35;;;;;;;;;;;;;;;22.76;28.24;97542.84;5135925;27;654;-78
2021/08/01 02:55:04;;;;;;;;;;;;;;;22.62;28.44;97543.41;5135747;27;1349;-76
2021/08/01 02:57:30;;;;;;;;;;;;;;;22.58;28.63;97545.56;5135641;27;1893;-76
2021/08/01 02:59:56;;;;;;;;;;;;;;;22.64;28.63;97546.56;5135493;27;1062;-77
2021/08/01 03:02:22;;;;;;;;;;;;;;;22.69;28.64;97548.81;5135488;27;971;-77
2021/08/01 03:04:56;;;;;;;;;;;;;;;22.66;28.62;97557.44;5117876;28;1128;-78
2021/08/01 03:07:21;;;;;;;;;;;;;;;22.67;28.59;97562.66;5135663;27;668;-78
2021/08/01 03:09:52;;;;;;;;;;;;;;;22.68;28.45;97561.38;5101710;28;1246;-77
2021/08/01 03:12:17;;;;;;;;;;;;;;;22.65;28.74;97553.03;5102174;28;697;-78
2021/08/01 03:14:44;;;;;;;;;;;;;;;22.52;28.83;97556.72;5102186;28;645;-78
2021/08/01 03:17:09;;;;;;;;;;;;;;;22.44;28.90;97548.97;5101784;28;1889;-77
2021/08/01 03:20:04;;;;;;;;;;;;;;;22.52;28.66;97555.94;5101899;28;892;-77
2021/08/01 03:22:31;;;;;;;;;;;;;;;22.51;29.00;97554.34;5101175;28;1373;-77
2021/08/01 03:24:57;;;;;;;;;;;;;;;22.53;28.78;97563.19;5102013;28;678;-78
2021/08/01 03:27:23;;;;;;;;;;;;;;;22.63;28.64;97561.97;5101366;28;1334;-78
2021/08/01 03:29:49;;;;;;;;;;;;;;;22.70;28.48;97550.38;5101773;28;660;-78
2021/08/01 03:32:16;;;;;;;;;;;;;;;22.74;28.46;97555.91;5101411;28;940;-78
2021/08/01 03:34:42;;;;;;;;;;;;;;;22.65;28.56;97547.38;5100941;28;1164;-78
2021/08/01 03:37:08;;;;;;;;;;;;;;;22.63;28.62;97550.63;5101603;28;1905;-78
2021/08/01 03:39:52;;;;;;;;;;;;;;;22.50;28.80;97547.88;5101460;28;601;-77
2021/08/01 03:42:23;;;;;;;;;;;;;;;22.64;28.42;97546.56;5134228;27;671;-78
2021/08/01 03:44:48;;;;;;;;;;;;;;;22.61;28.68;97536.16;5135085;27;1345;-78
2021/08/01 03:47:14;;;;;;;;;;;;;;;22.51;28.90;97526.00;5101259;28;977;-77
2021/08/01 03:49:42;;;;;;;;;;;;;;;22.59;28.70;97533.00;5101210;28;798;-78
2021/08/01 03:52:25;;;;;;;;;;;;;;;22.58;28.82;97525.72;5100956;28;1484;-77
2021/08/01 03:54:50;;;;;;;;;;;;;;;22.56;28.80;97539.56;5101383;28;630;-78
2021/08/01 03:57:16;;;;;;;;;;;;;;;22.64;28.81;97557.91;5100758;28;1897;-78
2021/08/01 03:59:41;;;;;;;;;;;;;;;22.76;28.51;97554.19;5101428;28;642;-78
2021/08/01 04:02:07;;;;;;;;;;;;;;;22.66;28.59;97554.59;5100114;28;966;-78
2021/08/01 04:04:32;;;;;;;;;;;;;;;22.68;28.42;97558.56;5101134;28;870;-78
2021/08/01 04:06:58;;;;;;;;;;;;;;;22.68;28.90;97564.22;5101114;28;871;-78
2021/08/01 04:09:23;;;;;;;;;;;;;;;22.59;28.84;97561.34;5134466;27;977;-78
2021/08/01 04:11:49;;;;;;;;;;;;;;;22.61;28.56;97570.97;5101071;28;693;-78
2021/08/01 04:14:14;;;;;;;;;;;;;;;22.65;28.78;97587.84;5101121;28;662;-78
2021/08/01 04:16:40;;;;;;;;;;;;;;;22.76;28.45;97588.25;5100502;28;976;-78
2021/08/01 04:19:09;;;;;;;;;;;;;;;22.54;28.73;97578.97;5100672;28;1981;-78
2021/08/01 04:21:34;;;;;;;;;;;;;;;22.53;28.94;97568.84;5134271;27;885;-78
2021/08/01 04:24:00;;;;;;;;;;;;;;;22.57;28.78;97575.19;5100830;28;769;-78
2021/08/01 04:26:26;;;;;;;;;;;;;;;22.64;28.74;97566.44;5100773;28;694;-78
2021/08/01 04:28:52;;;;;;;;;;;;;;;22.69;28.86;97570.69;5100864;28;638;-78
2021/08/01 04:31:17;;;;;;;;;;;;;;;22.65;28.63;97565.16;5100812;28;950;-78
2021/08/01 04:33:43;;;;;;;;;;;;;;;22.54;28.92;97576.13;5100515;28;835;-78
2021/08/01 04:36:08;;;;;;;;;;;;;;;22.69;28.87;97571.50;5100549;28;1045;-78
2021/08/01 04:38:34;;;;;;;;;;;;;;;22.71;28.87;97574.66;5100920;28;1898;-78
2021/08/01 04:40:59;;;;;;;;;;;;;;;22.65;28.82;97582.19;5134126;27;1264;-78
2021/08/01 04:43:25;;;;;;;;;;;;;;;22.67;28.94;97576.81;5100534;28;670;-78
2021/08/01 04:45:50;;;;;;;;;;;;;;;22.68;29.05;97575.56;5100241;28;833;-78
2021/08/01 04:48:16;;;;;;;;;;;;;;;22.62;29.11;97577.41;5133989;27;937;-78
2021/08/01 04:50:41;;;;;;;;;;;;;;;22.57;29.10;97578.00;5100462;28;970;-78
2021/08/01 04:53:07;;;;;;;;;;;;;;;22.62;29.22;97585.94;5100442;28;660;-78
2021/08/01 04:55:33;;;;;;;;;;;;;;;22.74;28.95;97585.09;5133614;27;676;-78
2021/08/01 04:57:58;;;;;;;;;;;;;;;22.70;28.91;97590.09;5100306;28;1894;-78
2021/08/01 05:00:23;;;;;;;;;;;;;;;22.68;29.22;97586.91;5100009;28;983;-78
2021/08/01 05:02:49;;;;;;;;;;;;;;;22.65;28.89;97579.34;5100019;28;904;-78
2021/08/01 05:05:14;;;;;;;;;;;;;;;22.68;29.22;97581.25;5100127;28;837;-78
2021/08/01 05:07:40;;;;;;;;;;;;;;;22.63;29.36;97585.47;5100338;28;617;-78
2021/08/01 05:10:05;;;;;;;;;;;;;;;22.69;29.10;97582.84;5099739;28;1119;-78
2021/08/01 05:12:31;;;;;;;;;;;;;;;22.83;28.74;97593.63;5099999;28;647;-78
2021/08/01 05:14:56;;;;;;;;;;;;;;;22.86;28.99;97591.94;5099657;28;908;-78
2021/08/01 05:17:22;;;;;;;;;;;;;;;22.72;29.31;97590.41;5099700;28;1882;-78
2021/08/01 05:19:47;;;;;;;;;;;;;;;22.75;29.28;97586.66;5099516;28;1220;-78
2021/08/01 05:22:13;;;;;;;;;;;;;;;22.67;29.47;97593.06;5099994;28;693;-78
2021/08/01 05:24:39;;;;;;;;;;;;;;;22.74;29.43;97596.44;5099935;28;693;-78
2021/08/01 05:27:04;;;;;;;;;;;;;;;22.66;29.43;97595.09;5100120;28;642;-78
2021/08/01 05:29:29;;;;;;;;;;;;;;;22.65;29.65;97604.88;5099697;28;990;-78
2021/08/01 05:31:55;;;;;;;;;;;;;;;22.57;29.65;97614.88;5132954;27;887;-78
2021/08/01 05:34:21;;;;;;;;;;;;;;;22.58;29.84;97610.78;5099878;28;816;-78
2021/08/01 05:36:46;;;;;;;;;;;;;;;22.70;29.70;97601.44;5133319;28;857;-78
2021/08/01 05:39:12;;;;;;;;;;;;;;;22.73;29.80;97606.16;5099740;28;1917;-77
2021/08/01 05:41:37;;;;;;;;;;;;;;;22.57;30.09;97606.38;5099627;28;1107;-78
2021/08/01 05:44:03;;;;;;;;;;;;;;;22.60;29.81;97608.28;5099492;28;946;-77
2021/08/01 05:46:29;;;;;;;;;;;;;;;22.74;29.69;97613.44;5099567;28;876;-77
2021/08/01 05:48:54;;;;;;;;;;;;;;;22.76;29.79;97613.75;5099799;28;851;-77
2021/08/01 05:51:20;;;;;;;;;;;;;;;22.62;30.14;97608.63;5099811;28;642;-78
2021/08/01 05:53:45;;;;;;;;;;;;;;;22.83;29.69;97616.31;5099709;28;671;-78
2021/08/01 05:56:11;;;;;;;;;;;;;;;22.67;30.05;97608.03;5133167;28;1153;-78
2021/08/01 05:58:37;;;;;;;;;;;;;;;22.80;29.90;97610.81;5099271;28;1901;-78
2021/08/01 06:01:09;;;;;;;;;;;;;;;22.84;29.56;97612.22;5099341;28;822;-78
2021/08/01 06:03:34;;;;;;;;;;;;;;;22.69;29.97;97616.88;5132924;28;847;-78
2021/08/01 06:06:09;;;;;;;;;;;;;;;22.80;29.93;97611.59;5099674;28;626;-78
2021/08/01 06:08:35;;;;;;;;;;;;;;;22.70;30.12;97607.09;5099599;28;639;-78
2021/08/01 06:11:01;;;;;;;;;;;;;;;22.70;30.07;97612.78;5099659;28;650;-78
2021/08/01 06:13:27;;;;;;;;;;;;;;;22.66;29.89;97614.16;5099205;28;899;-78
2021/08/01 06:15:52;;;;;;;;;;;;;;;22.72;29.84;97620.81;5099086;28;895;-76
2021/08/01 06:18:18;;;;;;;;;;;;;;;22.75;30.05;97626.38;5099235;28;1902;-77
2021/08/01 06:20:43;;;;;;;;;;;;;;;22.85;29.86;97619.50;5099775;28;702;-77
2021/08/01 06:23:09;;;;;;;;;;;;;;;22.86;29.71;97617.47;5099356;28;656;-78
2021/08/01 06:25:38;;;;;;;;;;;;;;;22.80;29.94;97620.09;5100975;28;630;-78
2021/08/01 06:28:04;;;;;;;;;;;;;;;22.77;29.75;97620.22;5102779;28;891;-78
2021/08/01 06:30:29;;;;;;;;;;;;;;;22.80;29.88;97622.16;5102256;28;1132;-78
2021/08/01 06:32:55;;;;;;;;;;;;;;;22.65;29.95;97615.41;5103081;28;893;-78
2021/08/01 06:35:20;;;;;;;;;;;;;;;22.69;30.25;97614.03;5102965;28;648;-78
2021/08/01 06:37:45;;;;;;;;;;;;;;;22.74;30.02;97630.47;5102686;28;1948;-78
2021/08/01 06:40:11;;;;;;;;;;;;;;;22.72;30.13;97626.50;5103066;28;633;-78
2021/08/01 06:42:36;;;;;;;;;;;;;;;22.83;29.89;97632.56;5135914;27;1293;-78
2021/08/01 06:45:02;;;;;;;;;;;;;;;22.79;30.01;97627.00;5102315;28;902;-78
2021/08/01 06:47:27;;;;;;;;;;;;;;;22.79;30.08;97640.41;5102655;28;957;-76
2021/08/01 06:49:53;;;;;;;;;;;;;;;22.66;30.28;97646.16;5102732;28;692;-77
2021/08/01 06:52:18;;;;;;;;;;;;;;;22.77;29.76;97635.19;5102566;28;657;-78
2021/08/01 06:54:44;;;;;;;;;;;;;;;22.73;29.92;97634.53;5102692;28;670;-78
2021/08/01 06:57:09;;;;;;;;;;;;;;;22.76;30.02;97644.97;5102354;28;1901;-78
2021/08/01 06:59:35;;;;;;;;;;;;;;;22.85;29.69;97636.53;5102395;28;912;-78
2021/08/01 07:02:01;;;;;;;;;;;;;;;22.75;30.16;97649.06;5102478;28;991;-78
2021/08/01 07:04:26;;;;;;;;;;;;;;;22.65;30.23;97633.22;5102448;28;591;-78
2021/08/01 07:06:52;;;;;;;;;;;;;;;22.77;30.19;97634.41;5102403;28;611;-77
2021/08/01 07:09:17;;;;;;;;;;;;;;;22.81;30.04;97629.41;5102554;28;618;-78
2021/08/01 07:11:43;;;;;;;;;;;;;;;22.91;29.84;97641.63;5102212;28;1013;-78
2021/08/01 07:14:08;;;;;;;;;;;;;;;22.76;30.01;97639.28;5101927;28;927;-78
2021/08/01 07:16:33;;;;;;;;;;;;;;;22.84;30.13;97646.25;5102156;28;986;-78
2021/08/01 07:18:59;;;;;;;;;;;;;;;22.89;30.17;97642.06;5102056;28;1959;-77
2021/08/01 07:21:24;;;;;;;;;;;;;;;22.74;30.44;97636.13;5102167;28;645;-78
2021/08/01 07:23:50;;;;;;;;;;;;;;;22.80;30.23;97634.28;5102121;28;591;-78
2021/08/01 07:26:15;;;;;;;;;;;;;;;22.76;30.26;97639.28;5101828;28;965;-78
2021/08/01 07:28:41;;;;;;;;;;;;;;;22.91;30.00;97639.59;5101940;28;925;-78
2021/08/01 07:31:06;;;;;;;;;;;;;;;22.87;29.86;97633.22;5101883;28;971;-77
2021/08/01 07:33:32;;;;;;;;;;;;;;;22.91;30.20;97638.78;5101873;28;669;-78
2021/08/01 07:35:57;;;;;;;;;;;;;;;22.83;30.23;97639.00;5101783;28;789;-78
2021/08/01 07:38:24;;;;;;;;;;;;;;;22.96;30.27;97641.03;5101693;28;1906;-78
2021/08/01 07:40:50;;;;;;;;;;;;;;;22.98;29.88;97649.88;5101898;28;745;-76
2021/08/01 07:43:15;;;;;;;;;;;;;;;22.90;30.01;97642.88;5101240;28;867;-75
2021/08/01 07:45:41;;;;;;;;;;;;;;;22.84;30.28;97640.59;5101303;28;838;-78
2021/08/01 07:48:06;;;;;;;;;;;;;;;22.71;30.55;97642.72;5101693;28;938;-78
2021/08/01 07:50:32;;;;;;;;;;;;;;;22.81;30.60;97650.03;5135002;27;804;-78
2021/08/01 07:52:57;;;;;;;;;;;;;;;22.92;30.16;97643.22;5101538;28;614;-78
2021/08/01 07:55:23;;;;;;;;;;;;;;;22.91;30.45;97647.31;5101366;28;606;-76
2021/08/01 07:57:50;;;;;;;;;;;;;;;22.96;30.27;97641.03;5101139;27;1902;-77
2021/08/01 08:00:16;;;;;;;;;;;;;;;22.94;30.36;97637.84;5134107;27;858;-76
2021/08/01 08:02:44;;;;;;;;;;;;;;;22.96;30.38;97641.81;5117092;28;852;-77
2021/08/01 08:05:10;;;;;;;;;;;;;;;22.88;30.54;97649.00;5134735;27;602;-77
2021/08/01 08:07:35;;;;;;;;;;;;;;;22.78;30.71;97642.44;5101348;28;665;-78
2021/08/01 08:10:00;;;;;;;;;;;;;;;22.89;30.53;97647.75;5101480;28;606;-78
2021/08/01 08:12:26;;;;;;;;;;;;;;;22.90;30.49;97642.88;5101107;28;1062;-78
2021/08/01 08:14:51;;;;;;;;;;;;;;;22.98;30.47;97647.03;5100795;28;883;-78
2021/08/01 08:17:17;;;;;;;;;;;;;;;22.91;30.59;97639.59;5100946;28;1902;-78
2021/08/01 08:19:43;;;;;;;;;;;;;;;22.88;30.52;97635.63;5134336;27;802;-78
2021/08/01 08:22:09;;;;;;;;;;;;;;;22.78;30.60;97636.78;5101015;28;645;-77
2021/08/01 08:24:34;;;;;;;;;;;;;;;22.93;30.57;97648.41;5100942;28;618;-77
2021/08/01 08:27:00;;;;;;;;;;;;;;;22.87;30.72;97650.25;5100650;28;880;-78
2021/08/01 08:29:25;;;;;;;;;;;;;;;23.05;30.44;97652.41;5133854;27;878;-77
2021/08/01 08:31:51;;;;;;;;;;;;;;;22.92;30.70;97651.72;5100710;28;965;-78
2021/08/01 08:34:17;;;;;;;;;;;;;;;22.83;30.56;97649.56;5134147;27;585;-78
2021/08/01 08:36:47;;;;;;;;;;;;;;;22.90;30.72;97645.69;5134524;27;645;-78
2021/08/01 08:39:12;;;;;;;;;;;;;;;22.92;30.70;97646.03;5100557;28;1909;-77
2021/08/01 08:41:38;;;;;;;;;;;;;;;22.96;30.58;97647.50;5100301;28;831;-77
2021/08/01 08:44:03;;;;;;;;;;;;;;;23.00;30.61;97644.50;5099662;28;807;-77
2021/08/01 08:46:29;;;;;;;;;;;;;;;22.86;30.54;97638.09;5100577;28;844;-78
2021/08/01 08:48:54;;;;;;;;;;;;;;;22.88;30.73;97652.63;5100463;28;713;-78
2021/08/01 08:51:21;;;;;;;;;;;;;;;22.96;30.67;97649.56;5099774;28;674;-77
2021/08/01 08:53:48;;;;;;;;;;;;;;;22.96;30.47;97646.72;5099666;28;1314;-77
2021/08/01 08:56:14;;;;;;;;;;;;;;;22.96;30.66;97630.47;5100095;28;862;-78
2021/08/01 08:58:39;;;;;;;;;;;;;;;23.02;30.59;97639.97;5099390;28;1976;-77
2021/08/01 09:01:04;;;;;;;;;;;;;;;23.01;30.72;97627.03;5099120;28;839;-77
2021/08/01 09:03:30;;;;;;;;;;;;;;;22.98;30.87;97633.63;5100229;28;667;-78
2021/08/01 09:05:59;;;;;;;;;;;;;;;22.96;30.84;97626.84;5099805;28;1247;-78
2021/08/01 09:08:25;;;;;;;;;;;;;;;22.88;30.93;97635.63;5100427;28;649;-78
2021/08/01 09:10:52;;;;;;;;;;;;;;;22.96;30.95;97636.16;5099868;28;945;-77
2021/08/01 09:13:36;;;;;;;;;;;;;;;23.03;30.60;97626.56;5099920;28;910;-78
2021/08/01 09:16:01;;;;;;;;;;;;;;;23.14;30.75;97632.63;5100542;28;710;-78
2021/08/01 09:18:31;;;;;;;;;;;;;;;23.03;30.55;97626.56;5099921;28;1906;-78
2021/08/01 09:20:57;;;;;;;;;;;;;;;23.07;30.52;97625.19;5099494;28;638;-78
2021/08/01 09:23:22;;;;;;;;;;;;;;;22.98;30.90;97624.31;5100047;28;650;-76
2021/08/01 09:25:55;;;;;;;;;;;;;;;22.98;30.68;97622.28;5099911;28;851;-78
2021/08/01 09:28:23;;;;;;;;;;;;;;;22.97;30.87;97629.22;5099908;28;894;-78
2021/08/01 09:30:49;;;;;;;;;;;;;;;22.95;30.76;97628.09;5099209;28;939;-78
2021/08/01 09:33:29;;;;;;;;;;;;;;;22.93;30.88;97619.25;5099960;28;829;-78
2021/08/01 09:36:05;;;;;;;;;;;;;;;22.93;30.97;97625.72;5100039;28;639;-78
2021/08/01 09:38:49;;;;;;;;;;;;;;;22.89;30.77;97625.06;5099997;28;1902;-78
2021/08/01 09:41:34;;;;;;;;;;;;;;;22.89;31.17;97619.38;5099665;28;934;-77
2021/08/01 09:44:00;;;;;;;;;;;;;;;22.82;31.02;97619.63;5099605;28;870;-78
2021/08/01 09:46:37;;;;;;;;;;;;;;;22.94;31.16;97621.63;5099906;28;590;-78
2021/08/01 09:49:10;;;;;;;;;;;;;;;22.93;31.16;97625.72;5099829;28;666;-78
2021/08/01 09:51:39;;;;;;;;;;;;;;;23.01;30.71;97620.56;5099103;28;614;-78
2021/08/01 09:54:05;;;;;;;;;;;;;;;23.09;30.93;97616.19;5099844;28;685;-78
2021/08/01 09:56:30;;;;;;;;;;;;;;;23.09;30.85;97616.19;5099719;28;681;-78
2021/08/01 09:58:55;;;;;;;;;;;;;;;23.01;31.03;97612.06;5099525;28;1897;-77
2021/08/01 10:01:21;;;;;;;;;;;;;;;23.04;30.97;97619.63;5102271;28;835;-77
2021/08/01 10:03:49;;;;;;;;;;;;;;;23.07;31.03;97613.03;5103644;28;885;-78
2021/08/01 10:06:15;;;;;;;;;;;;;;;23.02;31.14;97610.81;5103567;28;662;-77
2021/08/01 10:08:42;;;;;;;;;;;;;;;22.94;31.24;97610.28;5103663;28;697;-78
2021/08/01 10:11:11;;;;;;;;;;;;;;;22.95;31.11;97605.38;5103514;28;633;-78
2021/08/01 10:13:37;;;;;;;;;;;;;;;23.02;31.13;97610.81;5085494;28;1137;-78
2021/08/01 10:16:02;;;;;;;;;;;;;;;22.97;31.25;97597.22;5103159;28;908;-78
2021/08/01 10:18:28;;;;;;;;;;;;;;;23.08;30.64;97603.25;5103250;28;1902;-78
2021/08/01 10:20:53;;;;;;;;;;;;;;;23.14;30.93;97607.88;5102688;28;690;-78
2021/08/01 10:23:19;;;;;;;;;;;;;;;23.32;30.44;97595.81;5103357;28;606;-78
2021/08/01 10:25:44;;;;;;;;;;;;;;;23.20;30.90;97610.88;5102547;28;644;-78
2021/08/01 10:28:10;;;;;;;;;;;;;;;23.06;31.11;97606.56;5102969;28;1053;-78
2021/08/01 10:30:45;;;;;;;;;;;;;;;23.09;31.04;97599.16;5102179;28;848;-78
2021/08/01 10:33:12;;;;;;;;;;;;;;;23.06;31.05;97600.13;5103229;28;566;-78
2021/08/01 10:35:40;;;;;;;;;;;;;;;22.99;31.28;97611.72;5102436;28;638;-78
2021/08/01 10:38:08;;;;;;;;;;;;;;;23.04;31.14;97608.28;5102230;28;1902;-77
2021/08/01 10:40:33;;;;;;;;;;;;;;;22.93;31.21;97597.34;5086295;28;1137;-78
2021/08/01 10:43:06;;;;;;;;;;;;;;;22.92;31.49;97600.66;5102674;28;1037;-78
2021/08/01 10:45:37;;;;;;;;;;;;;;;23.02;31.31;97599.44;5102669;28;850;-78
2021/08/01 10:48:07;;;;;;;;;;;;;;;23.09;31.09;97599.94;5102151;28;1206;-78
2021/08/01 10:50:35;;;;;;;;;;;;;;;23.07;31.24;97591.13;5102295;28;662;-77
2021/08/01 10:53:21;;;;;;;;;;;;;;;23.02;31.33;97582.44;5102203;28;685;-78
2021/08/01 10:56:14;;;;;;;;;;;;;;;23.12;31.14;97593.34;5102530;28;940;-78
2021/08/01 10:58:40;;;;;;;;;;;;;;;23.13;31.05;97594.16;5086601;28;1890;-78
2021/08/01 11:01:06;;;;;;;;;;;;;;;23.01;31.02;97586.53;5102592;28;908;-77
2021/08/01 11:03:33;;;;;;;;;;;;;;;23.09;31.08;97599.16;5102572;28;739;-78
2021/08/01 11:05:58;;;;;;;;;;;;;;;22.98;31.28;97588.22;5102592;28;669;-77
2021/08/01 11:08:24;;;;;;;;;;;;;;;23.02;31.53;97586.06;5101385;28;828;-78
2021/08/01 11:11:08;;;;;;;;;;;;;;;23.13;31.21;97594.16;5101031;28;939;-77
2021/08/01 11:13:38;;;;;;;;;;;;;;;23.02;31.51;97582.44;5102175;28;965;-77
2021/08/01 11:16:06;;;;;;;;;;;;;;;23.14;31.36;97575.84;5102270;28;638;-78
2021/08/01 11:18:31;;;;;;;;;;;;;;;23.16;31.23;97587.56;5102013;28;1969;-78
2021/08/01 11:20:59;;;;;;;;;;;;;;;23.05;31.50;97584.31;5102280;28;627;-78
2021/08/01 11:23:47;;;;;;;;;;;;;;;23.07;31.42;97579.78;5102166;28;646;-78
2021/08/01 11:26:17;;;;;;;;;;;;;;;23.15;31.28;97585.94;5096315;28;1004;-77
2021/08/01 11:28:43;;;;;;;;;;;;;;;23.27;31.12;97584.28;5101255;28;914;-78
2021/08/01 11:31:11;;;;;;;;;;;;;;;23.23;31.19;97584.41;5101977;28;658;-78
2021/08/01 11:33:40;;;;;;;;;;;;;;;23.20;31.39;97576.81;5102007;28;693;-78
2021/08/01 11:36:11;;;;;;;;;;;;;;;23.06;31.56;97583.88;5101424;28;675;-77
2021/08/01 11:38:37;;;;;;;;;;;;;;;23.02;31.34;97585.25;5101881;28;1905;-78
2021/08/01 11:41:03;;;;;;;;;;;;;;;23.10;31.51;97583.72;5101431;28;1028;-78
2021/08/01 11:43:28;;;;;;;;;;;;;;;23.28;31.14;97583.03;5101391;28;899;-76
2021/08/01 11:45:57;;;;;;;;;;;;;;;23.27;30.97;97579.41;5101450;28;919;-78
2021/08/01 11:48:22;;;;;;;;;;;;;;;23.18;31.47;97562.31;5101738;28;591;-78
2021/08/01 11:50:48;;;;;;;;;;;;;;;23.32;30.96;97570.28;5100952;28;614;-78
2021/08/01 11:53:13;;;;;;;;;;;;;;;23.37;30.71;97563.97;5100398;28;855;-78
2021/08/01 11:55:39;;;;;;;;;;;;;;;23.30;31.21;97564.25;5100246;28;828;-78
2021/08/01 11:58:04;;;;;;;;;;;;;;;23.26;31.13;97569.31;5100818;28;1910;-77
2021/08/01 12:00:29;;;;;;;;;;;;;;;23.21;31.42;97567.06;5100622;28;974;-77
2021/08/01 12:02:56;;;;;;;;;;;;;;;23.08;31.56;97574.88;5100989;28;674;-78
2021/08/01 12:05:21;;;;;;;;;;;;;;;23.11;31.58;97556.94;5101328;28;653;-78
2021/08/01 12:07:50;;;;;;;;;;;;;;;23.23;31.27;97563.75;5100698;28;645;-78
2021/08/01 12:10:20;;;;;;;;;;;;;;;23.16;31.20;97558.34;5100933;28;878;-78
2021/08/01 12:12:46;;;;;;;;;;;;;;;23.15;31.20;97563.25;5100201;28;887;-78
2021/08/01 12:15:12;;;;;;;;;;;;;;;23.16;31.55;97564.03;5100062;28;952;-78
2021/08/01 12:17:37;;;;;;;;;;;;;;;23.14;31.24;97561.66;5100874;28;1902;-78
2021/08/01 12:20:03;;;;;;;;;;;;;;;23.22;31.24;97562.97;5101108;28;637;-78
2021/08/01 12:22:28;;;;;;;;;;;;;;;23.13;31.43;97565.78;5100220;28;830;-78
2021/08/01 12:24:57;;;;;;;;;;;;;;;23.08;31.53;97569.22;5100595;28;907;-78
2021/08/01 12:27:26;;;;;;;;;;;;;;;23.16;31.50;97566.88;5099765;28;1087;-78
2021/08/01 12:29:55;;;;;;;;;;;;;;;23.18;31.66;97573.69;5100923;28;693;-78
2021/08/01 12:32:22;;;;;;;;;;;;;;;23.23;31.45;97564.56;5100902;28;610;-78
2021/08/01 12:34:48;;;;;;;;;;;;;;;23.22;31.29;97574.34;5100987;28;646;-78
2021/08/01 12:37:14;;;;;;;;;;;;;;;23.11;31.55;97573.97;5099732;28;928;-78
2021/08/01 12:39:43;;;;;;;;;;;;;;;23.11;31.65;97566.25;5099713;28;1907;-78
2021/08/01 12:42:09;;;;;;;;;;;;;;;23.15;31.60;97563.25;5099649;28;844;-78
2021/08/01 12:44:34;;;;;;;;;;;;;;;23.06;31.37;97566.06;5100702;28;582;-78
2021/08/01 12:47:06;;;;;;;;;;;;;;;23.16;31.53;97570.53;5100556;28;610;-78
2021/08/01 12:49:32;;;;;;;;;;;;;;;23.16;31.50;97576.19;5100027;28;1085;-78
2021/08/01 12:51:58;;;;;;;;;;;;;;;23.17;31.45;97566.41;5099855;28;649;-78
2021/08/01 12:54:23;;;;;;;;;;;;;;;23.22;31.49;97574.34;5099770;28;642;-78
2021/08/01 12:57:08;;;;;;;;;;;;;;;23.26;31.19;97577.00;5099591;28;1022;-78
2021/08/01 12:59:34;;;;;;;;;;;;;;;23.21;31.46;97572.75;5099868;28;1929;-78
2021/08/01 13:02:00;;;;;;;;;;;;;;;23.09;31.55;97565.13;5100465;28;653;-78
2021/08/01 13:04:44;;;;;;;;;;;;;;;23.24;31.11;97563.28;5100292;28;598;-78
2021/08/01 13:07:09;;;;;;;;;;;;;;;23.17;31.42;97560.75;5099170;28;879;-78